createdAt,value
2023-05-20T00:01:48.739Z,12.30
2023-05-20T00:04:16.766Z,12.30
2023-05-20T00:06:44.746Z,12.40
2023-05-20T00:09:12.802Z,12.30
2023-05-20T00:11:40.819Z,12.20
2023-05-20T00:14:08.822Z,12.30
2023-05-20T00:16:38.210Z,12.20
2023-05-20T00:19:06.262Z,12.30
2023-05-20T00:21:34.809Z,12.30
2023-05-20T00:24:02.753Z,12.20
2023-05-20T00:26:30.827Z,12.10
2023-05-20T00:28:58.752Z,12.00
2023-05-20T00:31:26.815Z,12.00
2023-05-20T00:33:56.154Z,12.00
2023-05-20T00:36:24.097Z,11.90
2023-05-20T00:38:51.995Z,12.10
2023-05-20T00:41:19.914Z,12.20
2023-05-20T00:43:48.042Z,12.00
2023-05-20T00:46:16.552Z,12.10
2023-05-20T00:48:45.339Z,12.20
2023-05-20T00:51:15.275Z,12.20
2023-05-20T00:53:44.354Z,12.30
2023-05-20T00:56:12.810Z,12.20
2023-05-20T00:58:41.490Z,12.20
2023-05-20T01:01:09.493Z,12.30
2023-05-20T01:03:37.721Z,12.20
2023-05-20T01:06:05.902Z,12.10
2023-05-20T01:08:35.652Z,12.10
2023-05-20T01:11:09.057Z,12.00
2023-05-20T01:13:43.057Z,11.80
2023-05-20T01:16:12.412Z,11.70
2023-05-20T01:18:42.114Z,11.70
2023-05-20T01:21:13.308Z,11.70
2023-05-20T01:23:43.392Z,11.60
2023-05-20T01:26:13.664Z,11.60
2023-05-20T01:28:44.498Z,11.50
2023-05-20T01:31:16.861Z,11.50
2023-05-20T01:33:45.946Z,11.30
2023-05-20T01:36:14.721Z,11.30
2023-05-20T01:38:44.600Z,11.20
2023-05-20T01:41:13.783Z,11.10
2023-05-20T01:43:42.166Z,11.00
2023-05-20T01:46:10.181Z,11.00
2023-05-20T01:48:38.526Z,11.00
2023-05-20T01:51:06.640Z,10.90
2023-05-20T01:53:34.618Z,10.90
2023-05-20T01:56:03.944Z,10.90
2023-05-20T01:58:31.876Z,10.90
2023-05-20T02:01:00.067Z,10.70
2023-05-20T02:03:28.090Z,10.70
2023-05-20T02:05:56.191Z,10.60
2023-05-20T02:08:24.239Z,10.50
2023-05-20T02:10:52.200Z,10.50
2023-05-20T02:13:21.549Z,10.30
2023-05-20T02:15:49.517Z,10.20
2023-05-20T02:18:18.559Z,10.30
2023-05-20T02:20:46.652Z,10.30
2023-05-20T02:23:14.581Z,10.20
2023-05-20T02:25:42.555Z,10.10
2023-05-20T02:28:11.205Z,10.10
2023-05-20T02:30:40.745Z,10.00
2023-05-20T02:33:09.700Z,10.10
2023-05-20T02:35:37.741Z,10.00
2023-05-20T02:38:05.582Z,10.00
2023-05-20T02:40:33.448Z,9.90
2023-05-20T02:43:01.509Z,9.90
2023-05-20T02:45:29.429Z,9.90
2023-05-20T02:47:58.811Z,9.70
2023-05-20T02:50:26.790Z,9.90
2023-05-20T02:52:54.715Z,9.90
2023-05-20T02:55:23.699Z,9.90
2023-05-20T02:57:52.344Z,9.90
2023-05-20T03:00:20.279Z,9.90
2023-05-20T03:02:48.307Z,9.80
2023-05-20T03:05:17.893Z,10.00
2023-05-20T03:07:46.329Z,9.90
2023-05-20T03:10:14.295Z,9.90
2023-05-20T03:12:42.253Z,10.00
2023-05-20T03:15:10.844Z,9.70
2023-05-20T03:17:38.820Z,9.80
2023-05-20T03:20:08.303Z,9.70
2023-05-20T03:22:37.619Z,9.70
2023-05-20T03:25:06.556Z,9.60
2023-05-20T03:27:34.601Z,9.80
2023-05-20T03:30:02.576Z,9.70
2023-05-20T03:32:30.552Z,9.60
2023-05-20T03:35:00.036Z,9.80
2023-05-20T03:37:28.491Z,9.90
2023-05-20T03:39:57.860Z,9.80
2023-05-20T03:42:25.851Z,9.70
2023-05-20T03:44:54.050Z,9.90
2023-05-20T03:47:22.344Z,9.70
2023-05-20T03:49:50.326Z,10.00
2023-05-20T03:52:18.266Z,10.00
2023-05-20T03:54:46.229Z,9.90
2023-05-20T03:57:15.534Z,10.00
2023-05-20T03:59:43.495Z,10.10
2023-05-20T04:02:11.851Z,10.00
2023-05-20T04:04:43.004Z,10.20
2023-05-20T04:07:10.960Z,10.10
2023-05-20T04:09:39.636Z,10.20
2023-05-20T04:12:07.880Z,10.20
2023-05-20T04:14:38.838Z,10.20
2023-05-20T04:17:07.085Z,10.30
2023-05-20T04:19:36.280Z,10.20
2023-05-20T04:22:04.265Z,10.20
2023-05-20T04:24:32.203Z,10.20
2023-05-20T04:27:00.232Z,10.30
2023-05-20T04:29:28.472Z,10.30
2023-05-20T04:31:58.783Z,10.30
2023-05-20T04:34:27.106Z,10.40
2023-05-20T04:36:55.118Z,10.40
2023-05-20T04:39:23.035Z,10.50
2023-05-20T04:41:51.031Z,10.50
2023-05-20T04:44:19.015Z,10.60
2023-05-20T04:46:46.990Z,10.70
2023-05-20T04:49:16.378Z,10.80
2023-05-20T04:51:44.434Z,10.80
2023-05-20T04:54:12.397Z,11.00
2023-05-20T04:56:41.146Z,11.10
2023-05-20T04:59:09.653Z,11.10
2023-05-20T05:01:37.797Z,11.20
2023-05-20T05:04:06.261Z,11.20
2023-05-20T05:06:36.193Z,11.30
2023-05-20T05:09:04.768Z,11.30
2023-05-20T05:11:32.772Z,11.50
2023-05-20T05:14:00.888Z,11.60
2023-05-20T05:16:28.838Z,11.70
2023-05-20T05:18:56.815Z,11.60
2023-05-20T05:21:24.788Z,11.60
2023-05-20T05:23:56.196Z,11.80
2023-05-20T05:26:26.423Z,11.90
2023-05-20T05:28:55.226Z,12.10
2023-05-20T05:31:23.231Z,12.10
2023-05-20T05:33:51.324Z,12.20
2023-05-20T05:36:19.261Z,12.20
2023-05-20T05:38:47.188Z,12.40
2023-05-20T05:41:16.543Z,12.60
2023-05-20T05:43:44.536Z,12.60
2023-05-20T05:46:12.487Z,12.60
2023-05-20T05:48:42.387Z,12.70
2023-05-20T05:51:10.335Z,12.90
2023-05-20T05:53:38.249Z,12.90
2023-05-20T05:56:06.918Z,12.90
2023-05-20T05:58:36.342Z,13.00
2023-05-20T06:01:04.393Z,13.10
2023-05-20T06:03:32.419Z,13.20
2023-05-20T06:06:00.436Z,13.40
2023-05-20T06:08:28.374Z,13.50
2023-05-20T06:10:56.308Z,13.60
2023-05-20T06:13:24.614Z,13.60
2023-05-20T06:15:54.187Z,13.70
2023-05-20T06:18:22.151Z,13.70
2023-05-20T06:20:56.122Z,13.60
2023-05-20T06:23:24.171Z,13.70
2023-05-20T06:25:52.393Z,13.90
2023-05-20T06:28:21.773Z,14.00
2023-05-20T06:30:49.890Z,14.10
2023-05-20T06:33:20.256Z,14.20
2023-05-20T06:35:48.462Z,14.20
2023-05-20T06:38:16.425Z,14.30
2023-05-20T06:40:44.413Z,14.40
2023-05-20T06:43:12.421Z,14.50
2023-05-20T06:45:40.378Z,14.40
2023-05-20T06:48:08.551Z,14.50
2023-05-20T06:50:37.919Z,14.60
2023-05-20T06:53:05.845Z,14.50
2023-05-20T06:55:33.905Z,14.60
2023-05-20T06:58:01.971Z,14.70
2023-05-20T07:00:29.953Z,14.50
2023-05-20T07:02:58.083Z,14.70
2023-05-20T07:05:27.575Z,14.70
2023-05-20T07:07:56.917Z,14.90
2023-05-20T07:10:24.863Z,15.00
2023-05-20T07:12:52.783Z,15.10
2023-05-20T07:15:20.761Z,15.30
2023-05-20T07:17:48.794Z,15.40
2023-05-20T07:20:17.014Z,15.30
2023-05-20T07:22:45.143Z,15.40
2023-05-20T07:25:14.889Z,15.60
2023-05-20T07:27:42.946Z,15.60
2023-05-20T07:30:11.174Z,15.60
2023-05-20T07:32:39.158Z,15.80
2023-05-20T07:35:07.742Z,16.00
2023-05-20T07:37:35.921Z,16.20
2023-05-20T07:40:05.409Z,16.40
2023-05-20T07:42:35.050Z,16.50
2023-05-20T07:45:03.112Z,16.30
2023-05-20T07:47:33.377Z,16.40
2023-05-20T07:50:01.405Z,16.30
2023-05-20T07:52:29.515Z,16.30
2023-05-20T07:54:58.064Z,16.30
2023-05-20T07:57:26.020Z,16.30
2023-05-20T07:59:55.321Z,16.50
2023-05-20T08:02:23.243Z,16.50
2023-05-20T08:04:51.216Z,16.60
2023-05-20T08:07:19.124Z,16.50
2023-05-20T08:09:47.006Z,16.60
2023-05-20T08:12:14.870Z,16.50
2023-05-20T08:14:43.534Z,16.50
2023-05-20T08:17:12.892Z,16.70
2023-05-20T08:19:40.944Z,16.70
2023-05-20T08:22:08.904Z,16.80
2023-05-20T08:24:37.028Z,16.90
2023-05-20T08:27:05.162Z,17.10
2023-05-20T08:29:33.290Z,17.20
2023-05-20T08:32:01.155Z,17.20
2023-05-20T08:34:30.456Z,17.30
2023-05-20T08:36:58.362Z,17.50
2023-05-20T08:39:27.175Z,17.60
2023-05-20T08:41:55.256Z,17.60
2023-05-20T08:44:25.481Z,17.30
2023-05-20T08:46:55.593Z,17.40
2023-05-20T08:49:23.680Z,17.80
2023-05-20T08:51:52.981Z,17.80
2023-05-20T08:54:23.918Z,17.60
2023-05-20T08:56:54.025Z,17.50
2023-05-20T08:59:23.390Z,17.50
2023-05-20T09:01:51.336Z,17.70
2023-05-20T09:04:19.290Z,17.50
2023-05-20T09:06:47.965Z,17.50
2023-05-20T09:09:17.364Z,17.50
2023-05-20T09:11:45.315Z,17.30
2023-05-20T09:14:13.205Z,17.20
2023-05-20T09:16:41.949Z,17.10
2023-05-20T09:19:11.279Z,17.20
2023-05-20T09:21:39.863Z,17.30
2023-05-20T09:24:07.803Z,17.60
2023-05-20T09:26:37.642Z,17.60
2023-05-20T09:29:06.092Z,17.80
2023-05-20T09:31:34.390Z,17.90
2023-05-20T09:34:02.904Z,18.10
2023-05-20T09:36:31.804Z,18.30
2023-05-20T09:39:05.082Z,18.40
2023-05-20T09:41:39.467Z,18.60
2023-05-20T09:44:07.858Z,18.70
2023-05-20T09:46:37.035Z,18.80
2023-05-20T09:49:06.730Z,18.70
2023-05-20T09:51:35.319Z,18.80
2023-05-20T09:54:05.052Z,18.70
2023-05-20T09:56:34.728Z,19.00
2023-05-20T09:59:06.369Z,18.90
2023-05-20T10:01:34.341Z,19.00
2023-05-20T10:04:03.043Z,19.20
2023-05-20T10:06:47.618Z,19.40
2023-05-20T10:09:29.916Z,19.20
2023-05-20T10:12:04.493Z,18.80
2023-05-20T10:14:46.961Z,18.90
2023-05-20T10:17:22.652Z,19.10
2023-05-20T10:19:51.148Z,19.50
2023-05-20T10:22:28.974Z,19.60
2023-05-20T10:25:00.484Z,19.70
2023-05-20T10:27:28.558Z,19.80
2023-05-20T10:29:58.373Z,20.10
2023-05-20T10:32:27.505Z,19.90
2023-05-20T10:35:00.402Z,20.00
2023-05-20T10:37:30.769Z,19.70
2023-05-20T10:40:08.408Z,19.70
2023-05-20T10:42:36.386Z,19.80
2023-05-20T10:45:07.368Z,19.90
2023-05-20T10:47:35.890Z,19.80
2023-05-20T10:50:05.882Z,19.60
2023-05-20T10:52:35.118Z,19.70
2023-05-20T10:55:03.535Z,19.50
2023-05-20T10:57:32.074Z,19.60
2023-05-20T11:00:01.110Z,19.80
2023-05-20T11:02:30.770Z,20.00
2023-05-20T11:04:59.151Z,20.10
2023-05-20T11:07:28.837Z,20.20
2023-05-20T11:09:56.947Z,20.00
2023-05-20T11:12:25.989Z,19.80
2023-05-20T11:14:54.330Z,19.90
2023-05-20T11:17:22.355Z,19.90
2023-05-20T11:19:52.063Z,20.20
2023-05-20T11:22:20.010Z,20.10
2023-05-20T11:24:47.961Z,20.20
2023-05-20T11:27:15.926Z,20.30
2023-05-20T11:29:44.009Z,20.30
2023-05-20T11:32:13.271Z,20.10
2023-05-20T11:34:42.578Z,19.90
2023-05-20T11:37:12.715Z,19.90
2023-05-20T11:39:40.886Z,20.20
2023-05-20T11:42:08.849Z,20.30
2023-05-20T11:44:36.902Z,20.40
2023-05-20T11:47:05.246Z,20.70
2023-05-20T11:49:40.742Z,21.00
2023-05-20T11:52:12.473Z,21.10
2023-05-20T11:54:40.495Z,20.90
2023-05-20T11:57:08.618Z,20.80
2023-05-20T11:59:36.889Z,20.40
2023-05-20T12:02:04.795Z,20.30
2023-05-20T12:04:32.746Z,20.50
2023-05-20T12:07:01.099Z,20.80
2023-05-20T12:09:30.621Z,21.00
2023-05-20T12:11:59.380Z,21.20
2023-05-20T12:14:27.321Z,21.20
2023-05-20T12:16:55.220Z,21.40
2023-05-20T12:19:23.172Z,21.50
2023-05-20T12:21:52.702Z,21.60
2023-05-20T12:24:21.260Z,21.70
2023-05-20T12:26:50.759Z,21.90
2023-05-20T12:29:18.709Z,22.10
2023-05-20T12:31:46.768Z,21.90
2023-05-20T12:34:14.700Z,21.60
2023-05-20T12:36:42.656Z,21.60
2023-05-20T12:39:11.013Z,21.80
2023-05-20T12:41:38.964Z,22.00
2023-05-20T12:44:08.338Z,22.20
2023-05-20T12:46:37.234Z,22.20
2023-05-20T12:49:05.652Z,21.80
2023-05-20T12:51:33.628Z,21.70
2023-05-20T12:54:02.325Z,21.60
2023-05-20T12:56:30.630Z,21.50
2023-05-20T12:58:58.593Z,21.20
2023-05-20T13:01:27.970Z,21.30
2023-05-20T13:03:56.016Z,21.50
2023-05-20T13:06:23.952Z,21.30
2023-05-20T13:08:51.893Z,21.30
2023-05-20T13:11:19.877Z,21.30
2023-05-20T13:13:47.844Z,21.60
2023-05-20T13:16:16.812Z,21.60
2023-05-20T13:18:46.433Z,21.50
2023-05-20T13:21:14.391Z,21.70
2023-05-20T13:23:42.996Z,21.60
2023-05-20T13:26:10.988Z,21.20
2023-05-20T13:28:38.957Z,21.30
2023-05-20T13:31:07.705Z,21.40
2023-05-20T13:33:35.759Z,21.20
2023-05-20T13:36:05.605Z,20.90
2023-05-20T13:38:35.153Z,20.90
2023-05-20T13:41:03.812Z,21.10
2023-05-20T13:43:33.211Z,21.40
2023-05-20T13:46:01.315Z,21.80
2023-05-20T13:48:29.406Z,21.90
2023-05-20T13:50:57.316Z,22.10
2023-05-20T13:53:26.598Z,22.00
2023-05-20T13:55:54.583Z,21.90
2023-05-20T13:58:22.519Z,21.80
2023-05-20T14:00:50.444Z,21.80
2023-05-20T14:03:18.467Z,21.60
2023-05-20T14:05:46.473Z,21.40
2023-05-20T14:08:14.424Z,21.60
2023-05-20T14:10:43.695Z,21.30
2023-05-20T14:13:11.594Z,21.10
2023-05-20T14:15:39.552Z,20.70
2023-05-20T14:18:07.710Z,20.40
2023-05-20T14:20:35.949Z,20.40
2023-05-20T14:23:04.060Z,20.40
2023-05-20T14:25:32.011Z,20.30
2023-05-20T14:28:01.295Z,20.20
2023-05-20T14:30:29.225Z,20.40
2023-05-20T14:32:57.295Z,20.70
2023-05-20T14:35:25.331Z,20.90
2023-05-20T14:37:54.053Z,20.80
2023-05-20T14:40:22.004Z,20.70
2023-05-20T14:42:49.923Z,20.50
2023-05-20T14:45:19.469Z,20.20
2023-05-20T14:47:47.415Z,20.00
2023-05-20T14:50:15.549Z,20.10
2023-05-20T14:52:43.677Z,20.30
2023-05-20T14:55:11.598Z,20.40
2023-05-20T14:57:39.598Z,20.30
2023-05-20T15:00:08.794Z,19.80
2023-05-20T15:02:38.288Z,19.80
2023-05-20T15:05:06.958Z,19.90
2023-05-20T15:07:34.884Z,19.90
2023-05-20T15:10:02.832Z,20.00
2023-05-20T15:12:30.737Z,20.20
2023-05-20T15:14:58.662Z,20.20
2023-05-20T15:17:26.681Z,20.20
2023-05-20T15:19:56.013Z,20.50
2023-05-20T15:22:23.958Z,20.40
2023-05-20T15:24:51.857Z,20.40
2023-05-20T15:27:19.825Z,20.80
2023-05-20T15:29:48.615Z,21.10
2023-05-20T15:32:16.703Z,21.00
2023-05-20T15:34:44.630Z,21.40
2023-05-20T15:37:14.021Z,21.90
2023-05-20T15:39:42.181Z,22.70
2023-05-20T15:42:13.601Z,23.50
2023-05-20T15:44:41.614Z,22.90
2023-05-20T15:47:09.515Z,22.90
2023-05-20T15:49:37.655Z,23.30
2023-05-20T15:52:06.256Z,23.70
2023-05-20T15:54:35.566Z,24.40
2023-05-20T15:57:03.681Z,24.10
2023-05-20T15:59:31.701Z,23.70
2023-05-20T16:01:59.824Z,23.60
2023-05-20T16:04:27.889Z,23.40
2023-05-20T16:06:55.897Z,23.40
2023-05-20T16:09:23.840Z,23.20
2023-05-20T16:11:53.125Z,23.40
2023-05-20T16:14:21.029Z,23.70
2023-05-20T16:16:48.971Z,23.70
2023-05-20T16:19:16.941Z,23.10
2023-05-20T16:21:45.972Z,23.30
2023-05-20T16:24:13.946Z,23.00
2023-05-20T16:26:42.015Z,22.10
2023-05-20T16:29:11.300Z,22.10
2023-05-20T16:31:39.238Z,22.50
2023-05-20T16:34:08.407Z,22.70
2023-05-20T16:36:36.523Z,22.10
2023-05-20T16:39:04.538Z,21.60
2023-05-20T16:41:32.596Z,21.50
2023-05-20T16:44:00.541Z,21.20
2023-05-20T16:46:29.832Z,21.10
2023-05-20T16:48:58.026Z,21.00
2023-05-20T16:51:26.075Z,20.30
2023-05-20T16:53:54.047Z,20.00
2023-05-20T16:56:22.905Z,19.90
2023-05-20T16:58:52.939Z,19.70
2023-05-20T17:01:21.228Z,19.60
2023-05-20T17:03:50.865Z,19.40
2023-05-20T17:06:18.923Z,19.20
2023-05-20T17:08:46.850Z,19.20
2023-05-20T17:11:14.975Z,19.20
2023-05-20T17:13:42.931Z,19.10
2023-05-20T17:16:11.900Z,19.10
2023-05-20T17:18:40.160Z,19.10
2023-05-20T17:21:09.558Z,19.00
2023-05-20T17:23:37.495Z,18.90
2023-05-20T17:26:05.754Z,18.80
2023-05-20T17:28:33.672Z,18.80
2023-05-20T17:31:01.588Z,18.80
2023-05-20T17:33:29.605Z,18.60
2023-05-20T17:35:57.638Z,18.70
2023-05-20T17:38:26.987Z,18.60
2023-05-20T17:40:55.149Z,18.60
2023-05-20T17:43:25.011Z,18.40
2023-05-20T17:45:53.093Z,18.50
2023-05-20T17:48:21.141Z,18.40
2023-05-20T17:50:49.074Z,18.30
2023-05-20T17:53:18.655Z,18.30
2023-05-20T17:55:49.345Z,18.30
2023-05-20T17:58:17.277Z,18.40
2023-05-20T18:00:45.255Z,18.40
2023-05-20T18:03:13.772Z,18.30
2023-05-20T18:05:41.973Z,18.20
2023-05-20T18:08:09.882Z,18.20
2023-05-20T18:10:37.982Z,18.20
2023-05-20T18:13:07.392Z,18.10
2023-05-20T18:15:35.423Z,18.10
2023-05-20T18:18:03.449Z,18.00
2023-05-20T18:20:31.424Z,17.90
2023-05-20T18:22:59.379Z,17.90
2023-05-20T18:25:27.687Z,17.90
2023-05-20T18:27:55.603Z,17.90
2023-05-20T18:30:24.946Z,17.80
2023-05-20T18:32:53.235Z,17.80
2023-05-20T18:35:21.237Z,17.80
2023-05-20T18:37:49.287Z,17.70
2023-05-20T18:40:18.991Z,17.80
2023-05-20T18:42:46.881Z,17.60
2023-05-20T18:45:14.822Z,17.50
2023-05-20T18:47:44.139Z,17.60
2023-05-20T18:50:12.730Z,17.60
2023-05-20T18:52:40.718Z,17.60
2023-05-20T18:55:09.428Z,17.40
2023-05-20T18:57:37.368Z,17.30
2023-05-20T19:00:10.627Z,17.20
2023-05-20T19:02:38.954Z,17.30
2023-05-20T19:05:10.496Z,17.30
2023-05-20T19:07:38.809Z,17.20
2023-05-20T19:10:07.851Z,17.10
2023-05-20T19:12:35.767Z,17.10
2023-05-20T19:15:05.091Z,16.90
2023-05-20T19:17:33.081Z,16.90
2023-05-20T19:20:01.281Z,16.90
2023-05-20T19:22:30.761Z,16.90
2023-05-20T19:24:58.841Z,16.80
2023-05-20T19:27:26.772Z,16.80
2023-05-20T19:29:54.664Z,16.60
2023-05-20T19:32:22.614Z,16.50
2023-05-20T19:34:50.596Z,16.50
2023-05-20T19:37:19.197Z,16.30
2023-05-20T19:39:49.348Z,16.30
2023-05-20T19:42:17.382Z,16.20
2023-05-20T19:44:46.468Z,16.10
2023-05-20T19:47:14.443Z,16.20
2023-05-20T19:49:42.404Z,16.20
2023-05-20T19:52:10.341Z,16.30
2023-05-20T19:54:39.201Z,16.20
2023-05-20T19:57:08.488Z,16.30
2023-05-20T19:59:37.770Z,16.20
2023-05-20T20:02:06.425Z,16.20
2023-05-20T20:04:34.408Z,16.30
2023-05-20T20:07:02.475Z,16.20
2023-05-20T20:09:31.124Z,16.30
2023-05-20T20:11:59.042Z,16.30
2023-05-20T20:14:28.376Z,16.20
2023-05-20T20:16:56.373Z,16.30
2023-05-20T20:19:26.170Z,16.30
2023-05-20T20:21:56.493Z,16.30
2023-05-20T20:24:25.033Z,16.30
2023-05-20T20:26:54.135Z,16.20
2023-05-20T20:29:22.762Z,16.10
2023-05-20T20:31:52.360Z,16.20
2023-05-20T20:34:20.497Z,16.10
2023-05-20T20:36:48.489Z,16.10
2023-05-20T20:39:18.991Z,16.10
2023-05-20T20:41:50.076Z,16.00
2023-05-20T20:44:20.927Z,16.00
2023-05-20T20:46:50.740Z,16.00
2023-05-20T20:49:20.663Z,16.00
2023-05-20T20:51:49.448Z,16.10
2023-05-20T20:54:17.418Z,16.10
2023-05-20T20:56:46.982Z,16.10
2023-05-20T20:59:15.866Z,16.10
2023-05-20T21:01:45.035Z,16.00
2023-05-20T21:04:13.839Z,16.10
2023-05-20T21:06:45.875Z,16.00
2023-05-20T21:09:14.342Z,16.10
2023-05-20T21:11:43.110Z,16.00
2023-05-20T21:14:11.634Z,16.10
2023-05-20T21:16:39.858Z,16.00
2023-05-20T21:19:07.908Z,16.10
2023-05-20T21:21:36.115Z,16.00
2023-05-20T21:24:05.637Z,16.10
2023-05-20T21:26:34.743Z,16.10
2023-05-20T21:29:02.672Z,16.00
2023-05-20T21:31:30.694Z,16.00
2023-05-20T21:33:58.708Z,16.10
2023-05-20T21:36:26.681Z,16.10
2023-05-20T21:38:54.588Z,16.10
2023-05-20T21:41:24.442Z,16.00
2023-05-20T21:43:52.710Z,16.10
2023-05-20T21:46:20.753Z,16.00
2023-05-20T21:48:51.047Z,16.10
2023-05-20T21:51:19.044Z,15.90
2023-05-20T21:53:46.992Z,16.00
2023-05-20T21:56:14.949Z,16.00
2023-05-20T21:58:44.226Z,16.00
2023-05-20T22:01:12.287Z,16.00
2023-05-20T22:03:40.722Z,16.00
2023-05-20T22:06:09.149Z,15.90
2023-05-20T22:08:37.118Z,15.90
2023-05-20T22:11:07.051Z,16.00
2023-05-20T22:13:36.169Z,15.90
2023-05-20T22:16:05.752Z,15.90
2023-05-20T22:18:33.685Z,15.80
2023-05-20T22:21:01.783Z,15.80
2023-05-20T22:23:29.845Z,15.90
2023-05-20T22:25:58.111Z,15.90
2023-05-20T22:28:26.180Z,15.80
2023-05-20T22:30:54.622Z,15.70
2023-05-20T22:33:24.225Z,15.80
2023-05-20T22:35:53.499Z,15.80
2023-05-20T22:38:21.960Z,15.80
2023-05-20T22:40:49.880Z,15.70
2023-05-20T22:43:17.781Z,15.70
2023-05-20T22:45:45.748Z,15.80
2023-05-20T22:48:13.704Z,15.80
2023-05-20T22:50:42.965Z,15.70
2023-05-20T22:53:11.132Z,15.80
2023-05-20T22:55:39.515Z,15.70
2023-05-20T22:58:07.920Z,15.70
2023-05-20T23:00:35.821Z,15.60
2023-05-20T23:03:03.813Z,15.70
2023-05-20T23:05:31.809Z,15.70
2023-05-20T23:08:01.390Z,15.60
2023-05-20T23:10:29.369Z,15.50
2023-05-20T23:12:57.232Z,15.60
2023-05-20T23:15:25.477Z,15.60
2023-05-20T23:17:53.464Z,15.50
2023-05-20T23:20:22.239Z,15.50
2023-05-20T23:22:50.177Z,15.40
2023-05-20T23:25:19.581Z,15.30
2023-05-20T23:27:47.548Z,15.40
2023-05-20T23:30:15.478Z,15.40
2023-05-20T23:32:43.523Z,15.30
2023-05-20T23:35:13.117Z,15.30
2023-05-20T23:37:42.008Z,15.20
2023-05-20T23:40:10.620Z,15.10
2023-05-20T23:42:39.977Z,15.00
2023-05-20T23:45:08.670Z,14.90
2023-05-20T23:47:37.827Z,14.80
2023-05-20T23:50:06.354Z,14.80
2023-05-20T23:52:34.254Z,14.70
2023-05-20T23:55:02.177Z,14.70
2023-05-20T23:57:30.061Z,14.60
2023-05-20T23:59:59.291Z,14.60
